sensor_id;sensor_type;location;lat;lon;timestamp;P1;durP1;ratioP1;P2;durP2;ratioP2
37641;SDS011;23486;51.956;5.888;2023-04-01T00:00:16;3.20;;;0.50;;
37641;SDS011;23486;51.956;5.888;2023-04-01T00:02:43;4.95;;;0.82;;
37641;SDS011;23486;51.956;5.888;2023-04-01T00:05:09;2.40;;;0.50;;
37641;SDS011;23486;51.956;5.888;2023-04-01T00:07:35;3.35;;;0.60;;
37641;SDS011;23486;51.956;5.888;2023-04-01T00:10:02;3.97;;;0.60;;
37641;SDS011;23486;51.956;5.888;2023-04-01T00:12:28;5.13;;;0.50;;
37641;SDS011;23486;51.956;5.888;2023-04-01T00:14:54;4.05;;;0.50;;
37641;SDS011;23486;51.956;5.888;2023-04-01T00:17:20;2.05;;;0.60;;
37641;SDS011;23486;51.956;5.888;2023-04-01T00:19:46;3.17;;;0.50;;
37641;SDS011;23486;51.956;5.888;2023-04-01T00:22:12;2.85;;;0.60;;
37641;SDS011;23486;51.956;5.888;2023-04-01T00:24:38;2.78;;;0.50;;
37641;SDS011;23486;51.956;5.888;2023-04-01T00:27:03;3.75;;;0.50;;
37641;SDS011;23486;51.956;5.888;2023-04-01T00:29:29;3.67;;;1.15;;
37641;SDS011;23486;51.956;5.888;2023-04-01T00:31:58;3.00;;;0.70;;
37641;SDS011;23486;51.956;5.888;2023-04-01T00:34:24;3.40;;;0.95;;
37641;SDS011;23486;51.956;5.888;2023-04-01T00:36:50;3.20;;;0.85;;
37641;SDS011;23486;51.956;5.888;2023-04-01T00:39:17;5.15;;;1.20;;
37641;SDS011;23486;51.956;5.888;2023-04-01T00:41:44;3.38;;;1.00;;
37641;SDS011;23486;51.956;5.888;2023-04-01T00:44:52;8.75;;;2.53;;
37641;SDS011;23486;51.956;5.888;2023-04-01T00:46:59;4.18;;;1.77;;
37641;SDS011;23486;51.956;5.888;2023-04-01T00:49:29;5.47;;;1.70;;
37641;SDS011;23486;51.956;5.888;2023-04-01T00:52:04;3.45;;;1.75;;
37641;SDS011;23486;51.956;5.888;2023-04-01T00:54:32;4.45;;;2.20;;
37641;SDS011;23486;51.956;5.888;2023-04-01T00:57:00;5.88;;;3.28;;
37641;SDS011;23486;51.956;5.888;2023-04-01T00:59:34;5.70;;;2.75;;
37641;SDS011;23486;51.956;5.888;2023-04-01T01:02:05;7.15;;;4.30;;
37641;SDS011;23486;51.956;5.888;2023-04-01T01:04:34;7.57;;;3.88;;
37641;SDS011;23486;51.956;5.888;2023-04-01T01:15:24;8.60;;;5.63;;
37641;SDS011;23486;51.956;5.888;2023-04-01T01:18:11;7.85;;;5.20;;
37641;SDS011;23486;51.956;5.888;2023-04-01T01:29:03;14.15;;;7.93;;
37641;SDS011;23486;51.956;5.888;2023-04-01T01:37:29;12.77;;;8.15;;
37641;SDS011;23486;51.956;5.888;2023-04-01T01:40:01;14.00;;;6.90;;
37641;SDS011;23486;51.956;5.888;2023-04-01T01:42:30;16.02;;;9.27;;
37641;SDS011;23486;51.956;5.888;2023-04-01T01:44:58;18.02;;;9.35;;
37641;SDS011;23486;51.956;5.888;2023-04-01T01:47:25;17.65;;;9.73;;
37641;SDS011;23486;51.956;5.888;2023-04-01T01:49:53;14.77;;;9.32;;
37641;SDS011;23486;51.956;5.888;2023-04-01T01:52:21;14.52;;;9.32;;
37641;SDS011;23486;51.956;5.888;2023-04-01T01:54:53;12.85;;;9.13;;
37641;SDS011;23486;51.956;5.888;2023-04-01T01:57:28;12.88;;;9.38;;
37641;SDS011;23486;51.956;5.888;2023-04-01T02:00:10;13.95;;;9.02;;
37641;SDS011;23486;51.956;5.888;2023-04-01T02:02:44;8.93;;;6.88;;
37641;SDS011;23486;51.956;5.888;2023-04-01T02:05:15;14.80;;;8.45;;
37641;SDS011;23486;51.956;5.888;2023-04-01T02:07:48;13.20;;;7.45;;
37641;SDS011;23486;51.956;5.888;2023-04-01T02:10:19;15.15;;;7.40;;
37641;SDS011;23486;51.956;5.888;2023-04-01T02:12:47;12.95;;;6.03;;
37641;SDS011;23486;51.956;5.888;2023-04-01T02:15:15;13.95;;;5.68;;
37641;SDS011;23486;51.956;5.888;2023-04-01T02:17:43;15.27;;;5.60;;
37641;SDS011;23486;51.956;5.888;2023-04-01T02:20:15;20.27;;;5.32;;
37641;SDS011;23486;51.956;5.888;2023-04-01T02:22:45;12.68;;;4.50;;
37641;SDS011;23486;51.956;5.888;2023-04-01T02:25:15;11.00;;;3.50;;
37641;SDS011;23486;51.956;5.888;2023-04-01T02:27:45;13.95;;;5.15;;
37641;SDS011;23486;51.956;5.888;2023-04-01T02:30:12;17.10;;;4.95;;
37641;SDS011;23486;51.956;5.888;2023-04-01T02:32:39;11.88;;;4.68;;
37641;SDS011;23486;51.956;5.888;2023-04-01T02:35:06;11.10;;;4.18;;
37641;SDS011;23486;51.956;5.888;2023-04-01T02:37:38;12.70;;;4.38;;
37641;SDS011;23486;51.956;5.888;2023-04-01T02:40:07;9.55;;;4.40;;
37641;SDS011;23486;51.956;5.888;2023-04-01T02:42:35;13.02;;;5.38;;
37641;SDS011;23486;51.956;5.888;2023-04-01T02:45:01;10.77;;;3.35;;
37641;SDS011;23486;51.956;5.888;2023-04-01T02:47:27;13.48;;;4.90;;
37641;SDS011;23486;51.956;5.888;2023-04-01T02:49:54;14.52;;;4.70;;
37641;SDS011;23486;51.956;5.888;2023-04-01T02:52:23;9.27;;;3.80;;
37641;SDS011;23486;51.956;5.888;2023-04-01T02:54:54;9.50;;;4.68;;
37641;SDS011;23486;51.956;5.888;2023-04-01T02:57:20;8.88;;;4.28;;
37641;SDS011;23486;51.956;5.888;2023-04-01T02:59:46;9.25;;;3.58;;
37641;SDS011;23486;51.956;5.888;2023-04-01T03:02:12;5.88;;;2.63;;
37641;SDS011;23486;51.956;5.888;2023-04-01T03:04:39;6.40;;;3.03;;
37641;SDS011;23486;51.956;5.888;2023-04-01T03:07:05;5.05;;;2.60;;
37641;SDS011;23486;51.956;5.888;2023-04-01T03:09:30;4.95;;;2.60;;
37641;SDS011;23486;51.956;5.888;2023-04-01T03:11:56;6.18;;;3.42;;
37641;SDS011;23486;51.956;5.888;2023-04-01T03:14:21;6.15;;;3.15;;
37641;SDS011;23486;51.956;5.888;2023-04-01T03:16:47;7.63;;;4.03;;
37641;SDS011;23486;51.956;5.888;2023-04-01T03:19:16;5.28;;;2.47;;
37641;SDS011;23486;51.956;5.888;2023-04-01T03:21:44;6.57;;;3.22;;
37641;SDS011;23486;51.956;5.888;2023-04-01T03:24:10;5.57;;;2.95;;
37641;SDS011;23486;51.956;5.888;2023-04-01T03:26:35;7.65;;;3.75;;
37641;SDS011;23486;51.956;5.888;2023-04-01T03:29:01;7.32;;;3.63;;
37641;SDS011;23486;51.956;5.888;2023-04-01T03:31:33;8.07;;;4.03;;
37641;SDS011;23486;51.956;5.888;2023-04-01T03:33:59;7.10;;;3.33;;
37641;SDS011;23486;51.956;5.888;2023-04-01T03:36:24;6.63;;;3.33;;
37641;SDS011;23486;51.956;5.888;2023-04-01T03:38:50;7.00;;;3.63;;
37641;SDS011;23486;51.956;5.888;2023-04-01T03:41:16;5.82;;;3.10;;
37641;SDS011;23486;51.956;5.888;2023-04-01T03:43:42;6.05;;;3.58;;
37641;SDS011;23486;51.956;5.888;2023-04-01T03:46:08;6.78;;;3.20;;
37641;SDS011;23486;51.956;5.888;2023-04-01T03:48:34;5.03;;;3.03;;
37641;SDS011;23486;51.956;5.888;2023-04-01T03:51:06;6.03;;;2.88;;
37641;SDS011;23486;51.956;5.888;2023-04-01T03:53:32;6.28;;;4.07;;
37641;SDS011;23486;51.956;5.888;2023-04-01T03:55:58;6.43;;;3.45;;
37641;SDS011;23486;51.956;5.888;2023-04-01T03:58:27;9.80;;;4.25;;
37641;SDS011;23486;51.956;5.888;2023-04-01T04:00:53;9.63;;;4.85;;
37641;SDS011;23486;51.956;5.888;2023-04-01T04:03:19;8.48;;;4.95;;
37641;SDS011;23486;51.956;5.888;2023-04-01T04:05:48;8.98;;;4.32;;
37641;SDS011;23486;51.956;5.888;2023-04-01T04:08:21;8.15;;;4.53;;
37641;SDS011;23486;51.956;5.888;2023-04-01T04:10:47;7.18;;;4.30;;
37641;SDS011;23486;51.956;5.888;2023-04-01T04:13:13;9.70;;;5.15;;
37641;SDS011;23486;51.956;5.888;2023-04-01T04:15:38;6.70;;;3.88;;
37641;SDS011;23486;51.956;5.888;2023-04-01T04:18:04;11.73;;;5.05;;
37641;SDS011;23486;51.956;5.888;2023-04-01T04:20:30;11.77;;;6.20;;
37641;SDS011;23486;51.956;5.888;2023-04-01T04:22:55;13.40;;;7.32;;
37641;SDS011;23486;51.956;5.888;2023-04-01T04:25:21;9.65;;;6.03;;
37641;SDS011;23486;51.956;5.888;2023-04-01T04:27:46;9.18;;;6.05;;
37641;SDS011;23486;51.956;5.888;2023-04-01T04:30:12;8.10;;;5.40;;
37641;SDS011;23486;51.956;5.888;2023-04-01T04:32:38;10.25;;;6.13;;
37641;SDS011;23486;51.956;5.888;2023-04-01T04:35:04;13.65;;;7.32;;
37641;SDS011;23486;51.956;5.888;2023-04-01T04:37:31;13.57;;;8.05;;
37641;SDS011;23486;51.956;5.888;2023-04-01T04:39:56;12.98;;;8.35;;
37641;SDS011;23486;51.956;5.888;2023-04-01T04:42:22;16.52;;;9.45;;
37641;SDS011;23486;51.956;5.888;2023-04-01T04:44:48;12.73;;;8.55;;
37641;SDS011;23486;51.956;5.888;2023-04-01T04:47:13;16.30;;;10.70;;
37641;SDS011;23486;51.956;5.888;2023-04-01T04:49:39;13.63;;;8.80;;
37641;SDS011;23486;51.956;5.888;2023-04-01T04:52:05;11.82;;;7.82;;
37641;SDS011;23486;51.956;5.888;2023-04-01T04:54:30;13.93;;;9.35;;
37641;SDS011;23486;51.956;5.888;2023-04-01T04:56:59;14.13;;;10.18;;
37641;SDS011;23486;51.956;5.888;2023-04-01T04:59:25;17.63;;;10.18;;
37641;SDS011;23486;51.956;5.888;2023-04-01T05:01:51;14.38;;;9.30;;
37641;SDS011;23486;51.956;5.888;2023-04-01T05:04:16;17.83;;;10.30;;
37641;SDS011;23486;51.956;5.888;2023-04-01T05:06:42;14.68;;;8.73;;
37641;SDS011;23486;51.956;5.888;2023-04-01T05:09:08;14.80;;;9.27;;
37641;SDS011;23486;51.956;5.888;2023-04-01T05:11:33;17.88;;;10.57;;
37641;SDS011;23486;51.956;5.888;2023-04-01T05:13:59;21.35;;;12.68;;
37641;SDS011;23486;51.956;5.888;2023-04-01T05:16:25;14.25;;;10.05;;
37641;SDS011;23486;51.956;5.888;2023-04-01T05:18:53;16.83;;;10.45;;
37641;SDS011;23486;51.956;5.888;2023-04-01T05:21:19;15.00;;;9.73;;
37641;SDS011;23486;51.956;5.888;2023-04-01T05:23:45;13.18;;;9.52;;
37641;SDS011;23486;51.956;5.888;2023-04-01T05:26:11;16.58;;;11.30;;
37641;SDS011;23486;51.956;5.888;2023-04-01T05:28:38;22.38;;;13.23;;
37641;SDS011;23486;51.956;5.888;2023-04-01T05:31:04;17.95;;;10.75;;
37641;SDS011;23486;51.956;5.888;2023-04-01T05:33:31;15.38;;;10.77;;
37641;SDS011;23486;51.956;5.888;2023-04-01T05:35:56;14.85;;;9.82;;
37641;SDS011;23486;51.956;5.888;2023-04-01T05:38:40;13.90;;;9.43;;
37641;SDS011;23486;51.956;5.888;2023-04-01T05:41:07;13.07;;;9.07;;
37641;SDS011;23486;51.956;5.888;2023-04-01T05:43:35;13.90;;;8.43;;
37641;SDS011;23486;51.956;5.888;2023-04-01T05:46:02;12.70;;;7.97;;
37641;SDS011;23486;51.956;5.888;2023-04-01T05:48:27;13.77;;;7.70;;
37641;SDS011;23486;51.956;5.888;2023-04-01T05:50:53;15.15;;;8.77;;
37641;SDS011;23486;51.956;5.888;2023-04-01T05:53:18;14.30;;;9.15;;
37641;SDS011;23486;51.956;5.888;2023-04-01T05:55:44;19.77;;;10.23;;
37641;SDS011;23486;51.956;5.888;2023-04-01T05:58:10;14.13;;;8.43;;
37641;SDS011;23486;51.956;5.888;2023-04-01T06:00:35;14.55;;;8.50;;
37641;SDS011;23486;51.956;5.888;2023-04-01T06:03:01;14.93;;;7.55;;
37641;SDS011;23486;51.956;5.888;2023-04-01T06:05:28;10.75;;;6.20;;
37641;SDS011;23486;51.956;5.888;2023-04-01T06:07:57;14.02;;;7.07;;
37641;SDS011;23486;51.956;5.888;2023-04-01T06:24:55;26.55;;;11.60;;
37641;SDS011;23486;51.956;5.888;2023-04-01T06:27:55;27.25;;;10.73;;
37641;SDS011;23486;51.956;5.888;2023-04-01T06:30:42;27.92;;;11.52;;
37641;SDS011;23486;51.956;5.888;2023-04-01T06:41:51;21.35;;;8.45;;
37641;SDS011;23486;51.956;5.888;2023-04-01T06:44:34;17.23;;;7.00;;
37641;SDS011;23486;51.956;5.888;2023-04-01T06:50:30;11.07;;;4.35;;
37641;SDS011;23486;51.956;5.888;2023-04-01T06:53:06;14.82;;;5.43;;
37641;SDS011;23486;51.956;5.888;2023-04-01T06:56:05;11.38;;;4.55;;
37641;SDS011;23486;51.956;5.888;2023-04-01T06:58:44;8.98;;;3.58;;
37641;SDS011;23486;51.956;5.888;2023-04-01T07:01:25;9.80;;;3.78;;
37641;SDS011;23486;51.956;5.888;2023-04-01T07:09:22;6.35;;;2.67;;
37641;SDS011;23486;51.956;5.888;2023-04-01T07:11:53;7.13;;;2.38;;
37641;SDS011;23486;51.956;5.888;2023-04-01T07:14:27;5.20;;;2.22;;
37641;SDS011;23486;51.956;5.888;2023-04-01T07:19:58;5.72;;;1.60;;
37641;SDS011;23486;51.956;5.888;2023-04-01T07:22:33;5.90;;;1.83;;
37641;SDS011;23486;51.956;5.888;2023-04-01T07:25:13;5.05;;;1.42;;
37641;SDS011;23486;51.956;5.888;2023-04-01T07:27:45;4.45;;;1.00;;
37641;SDS011;23486;51.956;5.888;2023-04-01T07:30:15;4.10;;;1.23;;
37641;SDS011;23486;51.956;5.888;2023-04-01T07:33:04;3.97;;;1.60;;
37641;SDS011;23486;51.956;5.888;2023-04-01T07:35:41;4.05;;;0.93;;
37641;SDS011;23486;51.956;5.888;2023-04-01T07:46:39;2.20;;;0.70;;
37641;SDS011;23486;51.956;5.888;2023-04-01T07:52:27;2.22;;;0.45;;
37641;SDS011;23486;51.956;5.888;2023-04-01T07:54:40;2.53;;;0.50;;
37641;SDS011;23486;51.956;5.888;2023-04-01T08:00:24;2.45;;;0.75;;
37641;SDS011;23486;51.956;5.888;2023-04-01T08:05:41;3.58;;;0.80;;
37641;SDS011;23486;51.956;5.888;2023-04-01T08:13:53;3.08;;;0.60;;
37641;SDS011;23486;51.956;5.888;2023-04-01T08:21:57;2.40;;;0.55;;
37641;SDS011;23486;51.956;5.888;2023-04-01T08:24:35;1.90;;;0.52;;
37641;SDS011;23486;51.956;5.888;2023-04-01T08:30:33;2.22;;;0.50;;
37641;SDS011;23486;51.956;5.888;2023-04-01T08:38:41;1.75;;;0.28;;
37641;SDS011;23486;51.956;5.888;2023-04-01T08:52:35;2.33;;;0.40;;
37641;SDS011;23486;51.956;5.888;2023-04-01T08:55:35;1.50;;;0.30;;
37641;SDS011;23486;51.956;5.888;2023-04-01T08:58:16;2.17;;;0.50;;
37641;SDS011;23486;51.956;5.888;2023-04-01T09:00:52;2.22;;;0.60;;
37641;SDS011;23486;51.956;5.888;2023-04-01T09:09:42;2.95;;;0.50;;
37641;SDS011;23486;51.956;5.888;2023-04-01T09:21:24;2.33;;;0.50;;
37641;SDS011;23486;51.956;5.888;2023-04-01T09:24:15;1.98;;;0.50;;
37641;SDS011;23486;51.956;5.888;2023-04-01T09:32:26;2.53;;;0.60;;
37641;SDS011;23486;51.956;5.888;2023-04-01T09:35:40;2.17;;;0.60;;
37641;SDS011;23486;51.956;5.888;2023-04-01T09:41:01;4.10;;;0.60;;
37641;SDS011;23486;51.956;5.888;2023-04-01T09:52:15;2.20;;;0.60;;
37641;SDS011;23486;51.956;5.888;2023-04-01T10:00:45;6.05;;;2.03;;
37641;SDS011;23486;51.956;5.888;2023-04-01T10:12:35;3.78;;;1.40;;
37641;SDS011;23486;51.956;5.888;2023-04-01T10:26:23;8.40;;;4.13;;
37641;SDS011;23486;51.956;5.888;2023-04-01T10:36:54;9.60;;;4.70;;
37641;SDS011;23486;51.956;5.888;2023-04-01T10:42:11;8.50;;;4.53;;
37641;SDS011;23486;51.956;5.888;2023-04-01T10:50:43;11.75;;;5.35;;
37641;SDS011;23486;51.956;5.888;2023-04-01T10:53:30;10.52;;;4.95;;
37641;SDS011;23486;51.956;5.888;2023-04-01T11:15:18;9.10;;;5.47;;
37641;SDS011;23486;51.956;5.888;2023-04-01T11:20:49;10.40;;;6.07;;
37641;SDS011;23486;51.956;5.888;2023-04-01T11:24:04;9.05;;;5.13;;
37641;SDS011;23486;51.956;5.888;2023-04-01T11:26:52;7.80;;;4.72;;
37641;SDS011;23486;51.956;5.888;2023-04-01T11:34:59;9.02;;;5.40;;
37641;SDS011;23486;51.956;5.888;2023-04-01T11:41:07;4.00;;;1.73;;
37641;SDS011;23486;51.956;5.888;2023-04-01T11:43:46;2.55;;;0.70;;
37641;SDS011;23486;51.956;5.888;2023-04-01T11:46:16;4.18;;;0.88;;
37641;SDS011;23486;51.956;5.888;2023-04-01T11:51:47;3.80;;;0.93;;
37641;SDS011;23486;51.956;5.888;2023-04-01T12:00:20;2.33;;;0.77;;
37641;SDS011;23486;51.956;5.888;2023-04-01T12:06:08;3.65;;;0.60;;
37641;SDS011;23486;51.956;5.888;2023-04-01T12:08:48;3.50;;;0.60;;
37641;SDS011;23486;51.956;5.888;2023-04-01T12:12:06;3.45;;;0.63;;
37641;SDS011;23486;51.956;5.888;2023-04-01T12:14:58;1.42;;;0.38;;
37641;SDS011;23486;51.956;5.888;2023-04-01T12:17:53;1.52;;;0.32;;
37641;SDS011;23486;51.956;5.888;2023-04-01T13:02:12;3.95;;;1.20;;
37641;SDS011;23486;51.956;5.888;2023-04-01T13:22:33;5.60;;;2.38;;
37641;SDS011;23486;51.956;5.888;2023-04-01T13:27:45;4.05;;;1.95;;
37641;SDS011;23486;51.956;5.888;2023-04-01T13:30:30;6.47;;;2.53;;
37641;SDS011;23486;51.956;5.888;2023-04-01T13:38:43;5.15;;;2.08;;
37641;SDS011;23486;51.956;5.888;2023-04-01T13:44:30;3.53;;;1.70;;
37641;SDS011;23486;51.956;5.888;2023-04-01T13:49:53;4.63;;;1.70;;
37641;SDS011;23486;51.956;5.888;2023-04-01T14:14:38;2.22;;;0.70;;
37641;SDS011;23486;51.956;5.888;2023-04-01T14:17:29;1.88;;;0.50;;
37641;SDS011;23486;51.956;5.888;2023-04-01T14:28:41;2.55;;;0.57;;
37641;SDS011;23486;51.956;5.888;2023-04-01T14:39:43;2.22;;;0.60;;
37641;SDS011;23486;51.956;5.888;2023-04-01T14:50:27;1.90;;;0.60;;
37641;SDS011;23486;51.956;5.888;2023-04-01T14:58:25;3.28;;;1.10;;
37641;SDS011;23486;51.956;5.888;2023-04-01T15:03:38;1.45;;;0.52;;
37641;SDS011;23486;51.956;5.888;2023-04-01T15:06:16;2.25;;;0.50;;
37641;SDS011;23486;51.956;5.888;2023-04-01T15:28:14;3.22;;;0.63;;
37641;SDS011;23486;51.956;5.888;2023-04-01T15:33:49;2.67;;;0.77;;
37641;SDS011;23486;51.956;5.888;2023-04-01T15:36:44;2.38;;;0.70;;
37641;SDS011;23486;51.956;5.888;2023-04-01T15:47:53;6.80;;;2.85;;
37641;SDS011;23486;51.956;5.888;2023-04-01T16:06:29;6.70;;;4.47;;
37641;SDS011;23486;51.956;5.888;2023-04-01T16:22:37;7.75;;;4.40;;
37641;SDS011;23486;51.956;5.888;2023-04-01T16:39:15;8.55;;;4.80;;
37641;SDS011;23486;51.956;5.888;2023-04-01T16:45:15;6.43;;;4.28;;
37641;SDS011;23486;51.956;5.888;2023-04-01T16:48:05;7.93;;;4.43;;
37641;SDS011;23486;51.956;5.888;2023-04-01T16:50:47;9.60;;;5.18;;
37641;SDS011;23486;51.956;5.888;2023-04-01T16:53:42;6.57;;;4.15;;
37641;SDS011;23486;51.956;5.888;2023-04-01T16:56:14;7.47;;;4.68;;
37641;SDS011;23486;51.956;5.888;2023-04-01T17:01:29;7.13;;;4.18;;
37641;SDS011;23486;51.956;5.888;2023-04-01T17:04:12;7.05;;;3.83;;
37641;SDS011;23486;51.956;5.888;2023-04-01T17:06:49;8.35;;;4.05;;
37641;SDS011;23486;51.956;5.888;2023-04-01T17:09:55;6.15;;;4.15;;
37641;SDS011;23486;51.956;5.888;2023-04-01T17:15:20;8.48;;;4.70;;
37641;SDS011;23486;51.956;5.888;2023-04-01T17:28:50;7.72;;;5.28;;
37641;SDS011;23486;51.956;5.888;2023-04-01T17:31:45;9.43;;;6.57;;
37641;SDS011;23486;51.956;5.888;2023-04-01T17:34:17;9.25;;;6.03;;
37641;SDS011;23486;51.956;5.888;2023-04-01T17:36:56;8.07;;;5.45;;
37641;SDS011;23486;51.956;5.888;2023-04-01T17:39:46;6.68;;;4.75;;
37641;SDS011;23486;51.956;5.888;2023-04-01T17:45:20;6.85;;;4.80;;
37641;SDS011;23486;51.956;5.888;2023-04-01T17:47:49;6.63;;;4.32;;
37641;SDS011;23486;51.956;5.888;2023-04-01T17:50:27;6.70;;;4.22;;
37641;SDS011;23486;51.956;5.888;2023-04-01T18:10:37;7.97;;;6.35;;
37641;SDS011;23486;51.956;5.888;2023-04-01T18:13:19;9.80;;;7.05;;
37641;SDS011;23486;51.956;5.888;2023-04-01T18:21:36;11.18;;;8.25;;
37641;SDS011;23486;51.956;5.888;2023-04-01T18:24:16;10.38;;;8.48;;
37641;SDS011;23486;51.956;5.888;2023-04-01T18:29:54;8.50;;;7.00;;
37641;SDS011;23486;51.956;5.888;2023-04-01T18:35:02;8.02;;;6.32;;
37641;SDS011;23486;51.956;5.888;2023-04-01T18:40:40;10.45;;;7.22;;
37641;SDS011;23486;51.956;5.888;2023-04-01T18:43:16;12.73;;;8.65;;
37641;SDS011;23486;51.956;5.888;2023-04-01T18:46:21;14.13;;;9.43;;
37641;SDS011;23486;51.956;5.888;2023-04-01T18:54:05;12.88;;;10.00;;
37641;SDS011;23486;51.956;5.888;2023-04-01T18:56:38;13.95;;;9.60;;
37641;SDS011;23486;51.956;5.888;2023-04-01T18:59:11;13.00;;;10.38;;
37641;SDS011;23486;51.956;5.888;2023-04-01T19:02:08;13.85;;;10.48;;
37641;SDS011;23486;51.956;5.888;2023-04-01T19:05:05;14.82;;;11.40;;
37641;SDS011;23486;51.956;5.888;2023-04-01T19:13:13;13.18;;;9.98;;
37641;SDS011;23486;51.956;5.888;2023-04-01T19:18:43;11.82;;;8.93;;
37641;SDS011;23486;51.956;5.888;2023-04-01T19:27:18;11.38;;;8.18;;
37641;SDS011;23486;51.956;5.888;2023-04-01T19:35:44;17.20;;;10.73;;
37641;SDS011;23486;51.956;5.888;2023-04-01T19:46:33;13.85;;;9.55;;
37641;SDS011;23486;51.956;5.888;2023-04-01T19:49:24;12.38;;;9.27;;
37641;SDS011;23486;51.956;5.888;2023-04-01T19:57:23;13.98;;;9.25;;
37641;SDS011;23486;51.956;5.888;2023-04-01T20:03:07;13.98;;;9.85;;
37641;SDS011;23486;51.956;5.888;2023-04-01T20:11:13;15.05;;;11.75;;
37641;SDS011;23486;51.956;5.888;2023-04-01T20:17:47;15.32;;;11.77;;
37641;SDS011;23486;51.956;5.888;2023-04-01T20:19:59;16.27;;;11.75;;
37641;SDS011;23486;51.956;5.888;2023-04-01T20:25:23;14.73;;;11.25;;
37641;SDS011;23486;51.956;5.888;2023-04-01T20:28:05;15.40;;;11.73;;
37641;SDS011;23486;51.956;5.888;2023-04-01T20:33:46;15.98;;;11.82;;
37641;SDS011;23486;51.956;5.888;2023-04-01T20:50:26;17.10;;;13.60;;
37641;SDS011;23486;51.956;5.888;2023-04-01T20:58:32;21.60;;;16.35;;
37641;SDS011;23486;51.956;5.888;2023-04-01T21:09:28;19.00;;;14.68;;
37641;SDS011;23486;51.956;5.888;2023-04-01T21:12:18;20.83;;;15.15;;
37641;SDS011;23486;51.956;5.888;2023-04-01T21:14:54;19.77;;;15.48;;
37641;SDS011;23486;51.956;5.888;2023-04-01T21:23:29;18.98;;;15.02;;
37641;SDS011;23486;51.956;5.888;2023-04-01T21:26:24;17.27;;;13.75;;
37641;SDS011;23486;51.956;5.888;2023-04-01T21:31:41;17.73;;;14.45;;
37641;SDS011;23486;51.956;5.888;2023-04-01T21:43:02;15.82;;;12.88;;
37641;SDS011;23486;51.956;5.888;2023-04-01T21:49:24;13.93;;;11.65;;
37641;SDS011;23486;51.956;5.888;2023-04-01T21:51:43;14.13;;;11.20;;
37641;SDS011;23486;51.956;5.888;2023-04-01T22:02:44;12.35;;;9.75;;
37641;SDS011;23486;51.956;5.888;2023-04-01T22:27:45;13.35;;;8.80;;
37641;SDS011;23486;51.956;5.888;2023-04-01T22:30:22;12.02;;;9.48;;
37641;SDS011;23486;51.956;5.888;2023-04-01T22:32:51;13.98;;;10.88;;
37641;SDS011;23486;51.956;5.888;2023-04-01T22:35:26;13.80;;;10.90;;
37641;SDS011;23486;51.956;5.888;2023-04-01T22:41:25;15.73;;;11.82;;
37641;SDS011;23486;51.956;5.888;2023-04-01T22:43:57;16.27;;;12.00;;
37641;SDS011;23486;51.956;5.888;2023-04-01T22:49:04;13.45;;;11.48;;
37641;SDS011;23486;51.956;5.888;2023-04-01T22:51:49;11.95;;;10.13;;
37641;SDS011;23486;51.956;5.888;2023-04-01T22:54:32;11.63;;;9.38;;
37641;SDS011;23486;51.956;5.888;2023-04-01T23:02:06;13.73;;;9.27;;
37641;SDS011;23486;51.956;5.888;2023-04-01T23:04:40;11.88;;;9.27;;
37641;SDS011;23486;51.956;5.888;2023-04-01T23:10:57;12.82;;;9.25;;
37641;SDS011;23486;51.956;5.888;2023-04-01T23:13:10;12.68;;;8.55;;
37641;SDS011;23486;51.956;5.888;2023-04-01T23:15:42;8.82;;;7.25;;
37641;SDS011;23486;51.956;5.888;2023-04-01T23:21:18;12.57;;;8.98;;
37641;SDS011;23486;51.956;5.888;2023-04-01T23:26:39;15.90;;;11.57;;
37641;SDS011;23486;51.956;5.888;2023-04-01T23:29:11;16.92;;;12.65;;
37641;SDS011;23486;51.956;5.888;2023-04-01T23:31:40;14.57;;;11.52;;
37641;SDS011;23486;51.956;5.888;2023-04-01T23:36:40;14.85;;;11.75;;
37641;SDS011;23486;51.956;5.888;2023-04-01T23:41:46;15.75;;;12.52;;
37641;SDS011;23486;51.956;5.888;2023-04-01T23:44:12;17.30;;;13.02;;
37641;SDS011;23486;51.956;5.888;2023-04-01T23:46:40;15.77;;;12.57;;
37641;SDS011;23486;51.956;5.888;2023-04-01T23:49:12;15.20;;;12.63;;
37641;SDS011;23486;51.956;5.888;2023-04-01T23:52:57;15.55;;;12.20;;
37641;SDS011;23486;51.956;5.888;2023-04-01T23:54:53;15.88;;;11.95;;
37641;SDS011;23486;51.956;5.888;2023-04-01T23:57:24;16.77;;;12.27;;
